Monroe, NC

1:16 PM EDT on July 06, 2015 (GMT -0400)
Scotts House @ Bent Creek | | Change Station
CLOSE
Current Station
Personal Weather Station
Location: Indian Trail, NC
Elevation: 715 ft
Nearby Weather Stations

Elev 715 ft 35.10 °N, 80.62 °W | Updated 9 minutes ago

Mostly Cloudy
Mostly Cloudy
97.7 °F
Feels Like 104 °F
N
5.8
Wind Variable Wind from NNE

Today
High -- | Low -- °F
--% Chance of Precip.
Yesterday
High -- | Low -- °F
Precip. -- in
6:14 AM 8:40 PM
Waning Gibbous, 74% visible
Pressure 30.11 in
Visibility 10.0 miles
Clouds Scattered Clouds 4500 ft
Heat Index 104 °F
Dew Point 68 °F
Humidity 39%
Rainfall 0.00 in
Snow Depth Not available.
UV 10 out of 12
Pollen 2.50 out of 12
Air Quality Not available.
Flu Activity Not available.
METAR KEQY 061653Z AUTO 25008KT 220V280 10SM SCT045 32/19 A3012 RMK AO2 SLP194 T03170189

More Conditions Fewer Conditions

Pressure 30.11 in
Visibility 10.0 miles
Clouds Scattered Clouds 4500 ft
Heat Index 104 °F
Dew Point 68 °F
Humidity 39%
Rainfall 0.00 in
Snow Depth Not available.
UV 10 out of 12
Pollen 2.50 out of 12
Air Quality Not available.
Flu Activity Not available.
METAR KEQY 061653Z AUTO 25008KT 220V280 10SM SCT045 32/19 A3012 RMK AO2 SLP194 T03170189

More Conditions Fewer Conditions

10-Day Weather Forecast

×

Almanac

Astronomy

Jul. 06, 2015 Rise Set
Actual Time
Civil Twilight
Nautical Twilight
Astronomical Twilight
Moon
Length of Visible Light
Length of Day
Tomorrow will be .
, % of the Moon is Illuminated

Today's Extremes

State Highs State Lows

Community

WunderPhotos

Upload Photos

1,835,604 photos uploaded!

WunderBlogs® & News

Nearby

Air Quality

  Air Quality AQ Index Pollutant
Not available.

Snow Depth

Station Depth Elevation

Earthquake Activity

City Distance Mag. Time & Date
Minimum magnitude displayed is 2.5.

Coastal Water Temperatures

Place Temperature

Stations

Nearby Weather Stations

Station Location Temp. Windchill Dew Point Humidity Wind Precip. Elev Updated Type